Time;durP1;ratioP1;P1;durP2;ratioP2;P2;SDS_P1;SDS_P2;PMS_P1;PMS_P2;Temp;Humidity;BMP_temperature;BMP_pressure;BME280_temperature;BME280_humidity;BME280_pressure;Samples;Min_cycle;Max_cycle;Signal;HPM_P1;HPM_P2
2021/07/29 00:00:32;;;;;;;11.48;7.60;;;;;;;16.76;77.18;100207.84;1695813;84;21063;-75
2021/07/29 00:03:00;;;;;;;8.93;6.90;;;;;;;16.75;77.22;100207.02;1696180;84;21015;-74
2021/07/29 00:05:26;;;;;;;9.53;7.55;;;;;;;16.73;77.27;100205.06;1695998;84;21147;-75
2021/07/29 00:07:53;;;;;;;10.65;6.78;;;;;;;16.72;77.31;100201.23;1696070;84;21023;-75
2021/07/29 00:10:19;;;;;;;13.10;7.12;;;;;;;16.72;77.37;100202.58;1696239;84;21530;-75
2021/07/29 00:12:46;;;;;;;10.20;7.25;;;;;;;16.70;77.41;100207.36;1695684;84;21058;-74
2021/07/29 00:15:13;;;;;;;10.35;7.40;;;;;;;16.71;77.44;100192.87;1696219;84;21038;-74
2021/07/29 00:20:21;;;;;;;11.53;7.53;;;;;;;16.71;77.51;100190.17;1695887;84;20995;-74
2021/07/29 00:22:50;;;;;;;12.03;8.55;;;;;;;16.70;77.54;100187.16;1695717;84;21063;-74
2021/07/29 00:25:16;;;;;;;10.65;6.65;;;;;;;16.69;77.60;100189.03;1696173;84;21019;-74
2021/07/29 00:27:43;;;;;;;12.63;7.47;;;;;;;16.69;77.61;100196.27;1696060;84;21031;-74
2021/07/29 00:30:10;;;;;;;13.35;6.97;;;;;;;16.68;77.65;100192.75;1695990;84;21076;-75
2021/07/29 00:32:37;;;;;;;11.75;8.25;;;;;;;16.68;77.67;100194.61;1696113;84;21040;-75
2021/07/29 00:35:08;;;;;;;13.65;7.70;;;;;;;16.66;77.72;100200.23;1695924;84;21294;-74
2021/07/29 00:37:34;;;;;;;11.57;7.25;;;;;;;16.63;77.74;100195.28;1696036;84;21023;-74
2021/07/29 00:40:02;;;;;;;14.03;7.33;;;;;;;16.61;77.77;100193.81;1696096;84;21030;-75
2021/07/29 00:42:28;;;;;;;10.90;7.15;;;;;;;16.60;77.83;100193.53;1696095;84;21816;-74
2021/07/29 00:44:54;;;;;;;9.38;7.35;;;;;;;16.61;77.89;100196.51;1696014;84;21039;-74
2021/07/29 00:47:20;;;;;;;10.90;6.92;;;;;;;16.61;77.91;100193.81;1696086;84;21015;-74
2021/07/29 00:49:47;;;;;;;9.20;7.08;;;;;;;16.61;77.94;100191.12;1695914;84;21071;-74
2021/07/29 00:52:14;;;;;;;8.10;7.25;;;;;;;16.61;77.98;100188.44;1696173;84;21062;-75
2021/07/29 00:54:40;;;;;;;12.45;7.10;;;;;;;16.61;78.02;100191.95;1696059;84;21086;-74
2021/07/29 00:57:08;;;;;;;11.78;7.90;;;;;;;16.61;78.05;100189.78;1695770;84;21065;-75
2021/07/29 00:59:35;;;;;;;10.28;8.05;;;;;;;16.60;78.07;100192.19;1696087;84;21025;-75
2021/07/29 01:02:01;;;;;;;14.87;8.05;;;;;;;16.57;78.08;100187.23;1696093;84;21528;-75
2021/07/29 01:04:27;;;;;;;10.95;7.92;;;;;;;16.56;78.13;100186.41;1696044;84;21798;-74
2021/07/29 01:06:54;;;;;;;10.85;8.38;;;;;;;16.55;78.17;100181.19;1696063;84;21143;-74
2021/07/29 01:09:20;;;;;;;12.65;8.43;;;;;;;16.51;78.16;100183.48;1695987;84;21015;-74
2021/07/29 01:11:47;;;;;;;8.65;7.05;;;;;;;16.49;78.21;100181.53;1695668;84;21015;-74
2021/07/29 01:14:13;;;;;;;9.38;7.60;;;;;;;16.48;78.25;100183.91;1695824;84;21033;-74
2021/07/29 01:16:39;;;;;;;12.07;8.70;;;;;;;16.46;78.28;100181.97;1696158;84;21027;-75
2021/07/29 01:19:06;;;;;;;10.90;8.05;;;;;;;16.43;78.29;100175.67;1669884;84;21081;-75
2021/07/29 01:21:32;;;;;;;12.98;7.92;;;;;;;16.43;78.34;100179.70;1695994;84;21480;-75
2021/07/29 01:23:59;;;;;;;13.03;8.58;;;;;;;16.41;78.38;100185.29;1696000;84;21043;-74
2021/07/29 01:26:27;;;;;;;11.38;8.18;;;;;;;16.42;78.39;100176.70;1696034;84;21062;-74
2021/07/29 01:28:56;;;;;;;11.15;7.87;;;;;;;16.41;78.42;100171.83;1696052;84;21022;-74
2021/07/29 01:31:22;;;;;;;9.65;7.87;;;;;;;16.43;78.44;100171.63;1696236;84;21382;-74
2021/07/29 01:33:48;;;;;;;12.20;8.10;;;;;;;16.43;78.45;100172.43;1695971;84;21603;-74
2021/07/29 01:36:14;;;;;;;15.95;8.63;;;;;;;16.44;78.49;100174.09;1696090;84;21496;-74
2021/07/29 01:38:40;;;;;;;13.58;8.35;;;;;;;16.42;78.48;100176.19;1695999;84;21358;-74
2021/07/29 01:41:06;;;;;;;12.70;7.92;;;;;;;16.42;78.50;100178.05;1695988;84;21389;-74
2021/07/29 01:43:32;;;;;;;14.15;7.92;;;;;;;16.41;78.54;100175.03;1696003;84;21419;-75
2021/07/29 01:45:59;;;;;;;9.85;7.83;;;;;;;16.39;78.59;100172.58;1695970;84;21015;-74
2021/07/29 01:48:26;;;;;;;11.50;8.00;;;;;;;16.39;78.59;100175.27;1695955;84;21007;-74
2021/07/29 01:50:52;;;;;;;11.22;8.18;;;;;;;16.38;78.61;100173.61;1696075;84;21634;-74
2021/07/29 01:53:18;;;;;;;11.30;8.48;;;;;;;16.38;78.61;100170.08;1696077;84;20999;-74
2021/07/29 01:55:45;;;;;;;10.25;8.45;;;;;;;16.36;78.64;100176.22;1695909;84;21174;-74
2021/07/29 01:58:12;;;;;;;12.73;7.65;;;;;;;16.35;78.66;100170.52;1695956;84;21078;-75
2021/07/29 02:00:39;;;;;;;15.20;9.20;;;;;;;16.34;78.66;100177.76;1696160;84;21019;-74
2021/07/29 02:03:05;;;;;;;9.78;8.35;;;;;;;16.32;78.67;100171.77;1695663;84;21527;-75
2021/07/29 02:05:31;;;;;;;11.08;8.40;;;;;;;16.31;78.68;100179.53;1696094;84;21471;-75
2021/07/29 02:07:57;;;;;;;14.05;9.23;;;;;;;16.28;78.70;100175.92;1669929;84;21768;-74
2021/07/29 02:10:23;;;;;;;15.08;9.10;;;;;;;16.26;78.74;100180.67;1695985;84;21066;-74
2021/07/29 02:12:50;;;;;;;13.80;9.15;;;;;;;16.24;78.74;100179.24;1695860;84;20991;-74
2021/07/29 02:15:16;;;;;;;18.62;9.40;;;;;;;16.21;78.77;100172.43;1696038;84;21023;-74
2021/07/29 02:17:43;;;;;;;13.28;9.15;;;;;;;16.21;78.79;100179.67;1695979;84;21539;-74
2021/07/29 02:20:10;;;;;;;14.85;9.43;;;;;;;16.19;78.81;100173.66;1695996;84;21757;-74
2021/07/29 02:22:36;;;;;;;14.28;8.45;;;;;;;16.16;78.81;100170.05;1695910;84;21067;-74
2021/07/29 02:25:04;;;;;;;13.68;8.60;;;;;;;16.14;78.83;100181.04;1696138;84;21091;-74
2021/07/29 02:27:30;;;;;;;12.40;9.05;;;;;;;16.13;78.85;100183.41;1696068;84;21063;-74
2021/07/29 02:29:57;;;;;;;10.58;8.10;;;;;;;16.09;78.85;100182.17;1696254;84;21007;-75
2021/07/29 02:32:24;;;;;;;14.50;8.38;;;;;;;16.07;78.89;100192.34;1696126;84;21086;-75
2021/07/29 02:34:52;;;;;;;13.45;8.35;;;;;;;16.04;78.90;100190.58;1695835;84;21044;-75
2021/07/29 02:37:20;;;;;;;10.32;8.20;;;;;;;16.01;78.94;100189.12;1695972;84;21066;-74
2021/07/29 02:39:46;;;;;;;14.55;8.65;;;;;;;15.98;78.98;100188.20;1695989;84;21023;-74
2021/07/29 02:42:12;;;;;;;13.35;9.40;;;;;;;15.98;79.00;100197.61;1695987;84;21106;-74
2021/07/29 02:44:38;;;;;;;12.73;9.85;;;;;;;15.97;79.01;100198.67;1696009;84;21547;-74
2021/07/29 02:47:04;;;;;;;15.13;9.53;;;;;;;15.94;79.04;100201.23;1695849;84;21504;-74
2021/07/29 02:49:30;;;;;;;17.62;11.18;;;;;;;15.94;79.06;100204.44;1696097;84;21543;-74
2021/07/29 02:51:57;;;;;;;13.85;10.30;;;;;;;15.91;79.06;100205.70;1695682;84;37906;-74
2021/07/29 02:54:23;;;;;;;13.80;9.38;;;;;;;15.90;79.08;100207.27;1695777;84;21074;-74
2021/07/29 02:56:49;;;;;;;16.70;10.13;;;;;;;15.86;79.12;100200.65;1695911;84;21066;-74
2021/07/29 02:59:15;;;;;;;15.20;10.50;;;;;;;15.84;79.18;100202.70;1695990;84;21003;-74
2021/07/29 03:01:41;;;;;;;15.65;9.70;;;;;;;15.82;79.19;100191.34;1696064;84;21075;-75
2021/07/29 03:04:07;;;;;;;12.60;9.33;;;;;;;15.81;79.21;100193.71;1695740;84;21051;-74
2021/07/29 03:06:34;;;;;;;17.73;9.55;;;;;;;15.79;79.23;100197.14;1696067;84;21027;-74
2021/07/29 03:09:00;;;;;;;16.40;11.15;;;;;;;15.77;79.25;100200.02;1695966;84;21182;-74
2021/07/29 03:11:26;;;;;;;13.08;10.40;;;;;;;15.76;79.29;100198.91;1696056;84;20991;-74
2021/07/29 03:13:53;;;;;;;17.17;11.35;;;;;;;15.74;79.33;100197.75;1688325;84;20998;-74
2021/07/29 03:16:19;;;;;;;14.90;10.85;;;;;;;15.72;79.37;100198.49;1673983;85;21511;-74
2021/07/29 03:18:45;;;;;;;16.27;11.78;;;;;;;15.72;79.39;100196.32;1673779;85;21531;-74
2021/07/29 03:21:11;;;;;;;12.30;10.98;;;;;;;15.72;79.43;100196.32;1673846;85;21889;-74
2021/07/29 03:23:37;;;;;;;14.18;10.55;;;;;;;15.72;79.45;100204.38;1673750;85;21542;-74
2021/07/29 03:26:04;;;;;;;18.90;10.03;;;;;;;15.72;79.48;100198.49;1673877;85;21006;-74
2021/07/29 03:28:30;;;;;;;13.15;9.88;;;;;;;15.72;79.49;100207.07;1673797;85;21070;-74
2021/07/29 03:30:56;;;;;;;14.38;10.32;;;;;;;15.74;79.52;100204.48;1673828;85;21062;-74
2021/07/29 03:33:22;;;;;;;15.25;9.38;;;;;;;15.77;79.56;100196.50;1673719;85;21162;-74
2021/07/29 03:35:48;;;;;;;13.60;9.03;;;;;;;15.80;79.58;100200.95;1673965;85;21077;-74
2021/07/29 03:38:14;;;;;;;20.37;10.60;;;;;;;15.83;79.54;100206.45;1673937;85;20993;-74
2021/07/29 03:40:41;;;;;;;15.23;9.88;;;;;;;15.84;79.57;100204.05;1674067;85;21483;-74
2021/07/29 03:43:07;;;;;;;18.12;9.28;;;;;;;15.88;79.59;100202.59;1673919;85;21002;-74
2021/07/29 03:45:36;;;;;;;13.13;9.63;;;;;;;15.91;79.57;100203.52;1673918;85;21087;-74
2021/07/29 03:48:03;;;;;;;15.08;10.53;;;;;;;15.94;79.61;100203.09;1673743;84;21070;-74
2021/07/29 03:50:29;;;;;;;14.15;10.80;;;;;;;15.96;79.62;100199.70;1674019;85;21010;-74
2021/07/29 03:52:55;;;;;;;14.45;9.88;;;;;;;16.01;79.62;100206.61;1673842;85;21038;-74
2021/07/29 03:55:21;;;;;;;11.50;9.83;;;;;;;16.04;79.63;100200.83;1674002;85;21046;-74
2021/07/29 03:57:47;;;;;;;15.50;8.90;;;;;;;16.09;79.64;100198.32;1673745;85;21123;-74
2021/07/29 04:00:14;;;;;;;15.30;8.40;;;;;;;16.16;79.63;100205.86;1673971;85;21018;-74
2021/07/29 04:02:40;;;;;;;11.22;8.85;;;;;;;16.49;79.79;100196.34;1673644;85;20990;-75
2021/07/29 04:05:08;;;;;;;10.72;8.40;;;;;;;17.58;80.12;100193.45;1673908;85;21002;-75
2021/07/29 04:07:34;;;;;;;9.03;7.58;;;;;;;18.69;79.72;100200.91;1673951;85;21030;-75
2021/07/29 04:10:00;;;;;;;11.95;7.15;;;;;;;19.62;79.12;100192.59;1673921;85;21149;-75
2021/07/29 04:12:26;;;;;;;12.70;6.70;;;;;;;20.26;78.52;100201.12;1673945;85;21471;-75
2021/07/29 04:14:52;;;;;;;9.05;6.25;;;;;;;20.88;78.06;100189.13;1670309;84;21021;-75
2021/07/29 04:17:18;;;;;;;9.70;7.47;;;;;;;21.28;77.28;100197.22;1668651;86;21046;-75
2021/07/29 04:19:45;;;;;;;9.53;6.20;;;;;;;21.60;76.58;100200.20;1668764;86;21018;-75
2021/07/29 04:22:11;;;;;;;11.15;6.03;;;;;;;22.21;76.20;100193.27;1668656;86;21604;-75
2021/07/29 04:24:37;;;;;;;13.15;5.75;;;;;;;22.93;75.18;100189.03;1668665;85;21499;-76
2021/07/29 04:27:04;;;;;;;10.72;5.60;;;;;;;23.29;74.27;100188.28;1668696;86;21438;-75
2021/07/29 04:29:34;;;;;;;9.93;6.08;;;;;;;23.68;73.44;100186.77;1668667;86;21069;-75
2021/07/29 04:32:01;;;;;;;9.00;5.58;;;;;;;24.23;72.50;100189.87;1668347;86;21538;-75
2021/07/29 04:34:27;;;;;;;13.90;5.90;;;;;;;24.28;70.95;100187.69;1668716;86;22552;-76
2021/07/29 04:36:55;;;;;;;9.95;5.30;;;;;;;24.28;70.38;100193.97;1668568;85;21038;-76
2021/07/29 04:39:21;;;;;;;7.83;5.53;;;;;;;24.43;69.45;100195.12;1668625;85;21022;-75
2021/07/29 04:41:47;;;;;;;8.15;5.22;;;;;;;24.97;68.82;100201.09;1668928;85;20995;-76
2021/07/29 04:44:14;;;;;;;10.40;5.72;;;;;;;25.10;67.67;100192.38;1668651;86;21486;-75
2021/07/29 04:46:41;;;;;;;7.80;5.45;;;;;;;24.80;66.19;100193.94;1668621;86;21870;-75
2021/07/29 04:49:11;;;;;;;5.83;5.17;;;;;;;23.68;65.18;100199.02;1668552;85;21131;-75
2021/07/29 04:51:37;;;;;;;;;;;;;;;22.31;65.37;100194.77;1671194;86;21011;-75
2021/07/29 04:54:03;;;;;;;15.38;8.08;;;;;;;21.88;65.56;100197.39;1668794;85;20365;-75
2021/07/29 04:56:30;;;;;;;6.10;5.05;;;;;;;21.91;65.90;100183.34;1668580;85;21141;-75
2021/07/29 04:58:56;;;;;;;10.15;6.37;;;;;;;21.51;65.96;100181.31;1668694;86;21732;-75
2021/07/29 05:01:22;;;;;;;7.45;5.80;;;;;;;21.24;66.15;100186.56;1668460;86;21558;-75
2021/07/29 05:03:49;;;;;;;9.45;5.17;;;;;;;21.27;66.37;100193.68;1668746;86;20911;-75
2021/07/29 05:06:15;;;;;;;7.40;5.10;;;;;;;21.24;66.52;100188.75;1668613;86;21054;-75
2021/07/29 05:08:43;;;;;;;5.62;4.90;;;;;;;21.43;66.67;100188.79;1668352;85;21472;-75
2021/07/29 05:11:10;;;;;;;9.53;6.50;;;;;;;21.74;66.70;100192.81;1668633;86;21765;-75
2021/07/29 05:13:36;;;;;;;10.82;5.95;;;;;;;21.77;66.52;100192.87;1668424;85;20991;-75
2021/07/29 05:16:06;;;;;;;9.25;5.78;;;;;;;21.90;66.54;100199.34;1668182;84;21053;-76
2021/07/29 05:18:33;;;;;;;7.72;6.12;;;;;;;21.99;66.39;100205.19;1668551;86;21042;-76
2021/07/29 05:21:06;;;;;;;9.10;5.55;;;;;;;21.85;66.46;100201.94;1668733;86;21480;-75
2021/07/29 05:23:32;;;;;;;8.83;5.97;;;;;;;21.60;66.34;100192.89;1668621;86;21697;-76
2021/07/29 05:25:58;;;;;;;8.68;5.55;;;;;;;21.70;66.22;100199.84;1668687;85;21026;-75
2021/07/29 05:28:25;;;;;;;8.53;5.00;;;;;;;21.86;66.05;100199.52;1668734;86;21456;-75
2021/07/29 05:30:51;;;;;;;11.55;5.83;;;;;;;22.05;66.04;100202.30;1668539;86;21130;-76
2021/07/29 05:33:17;;;;;;;10.72;5.47;;;;;;;22.11;65.96;100202.64;1668620;85;20994;-75
2021/07/29 05:35:43;;;;;;;6.17;5.22;;;;;;;22.22;65.84;100203.08;1668544;84;21935;-76
2021/07/29 05:38:09;;;;;;;7.05;5.47;;;;;;;22.24;65.65;100202.81;1668635;86;20934;-76
2021/07/29 05:40:36;;;;;;;7.37;5.90;;;;;;;22.29;65.50;100196.92;1668556;86;20994;-75
2021/07/29 05:43:02;;;;;;;6.80;5.72;;;;;;;22.42;65.39;100195.72;1668704;86;21494;-76
2021/07/29 05:45:28;;;;;;;11.15;6.33;;;;;;;22.53;65.24;100183.08;1668665;85;20998;-76
2021/07/29 05:47:55;;;;;;;6.67;5.90;;;;;;;22.59;65.08;100195.12;1671166;84;21808;-76
2021/07/29 05:50:21;;;;;;;8.50;5.25;;;;;;;22.59;64.95;100190.24;1694011;84;20938;-76
2021/07/29 05:52:48;;;;;;;5.92;5.33;;;;;;;22.63;64.85;100198.15;1679998;83;21006;-76
2021/07/29 05:55:14;;;;;;;10.00;5.62;;;;;;;22.63;64.68;100199.51;1694617;84;20995;-76
2021/07/29 05:57:40;;;;;;;7.45;5.22;;;;;;;22.78;64.57;100196.48;1688399;84;21000;-75
2021/07/29 06:00:07;;;;;;;7.67;4.72;;;;;;;22.94;64.37;100198.81;1695718;84;21948;-76
2021/07/29 06:02:33;;;;;;;6.87;5.00;;;;;;;22.87;64.13;100200.91;1696475;84;20938;-76
2021/07/29 06:04:59;;;;;;;5.60;5.00;;;;;;;22.72;63.96;100202.94;1696795;84;21452;-76
2021/07/29 06:07:26;;;;;;;9.43;6.12;;;;;;;22.82;63.83;100195.43;1696319;84;21677;-76
2021/07/29 06:09:53;;;;;;;9.30;5.50;;;;;;;23.01;63.87;100195.35;1696625;84;20912;-76
2021/07/29 06:12:24;;;;;;;6.05;5.08;;;;;;;23.26;63.76;100193.42;1696660;84;21932;-75
2021/07/29 06:14:47;;;;;;;8.55;4.90;;;;;;;23.35;63.51;100189.99;1705300;83;20875;-76
2021/07/29 06:17:14;;;;;;;9.88;5.08;;;;;;;23.36;63.19;100194.34;1724933;83;21411;-76
2021/07/29 06:19:41;;;;;;;4.85;4.35;;;;;;;23.36;62.93;100199.78;1724897;83;21003;-76
2021/07/29 06:22:07;;;;;;;7.15;4.95;;;;;;;23.30;62.76;100200.00;1724842;83;21049;-76
2021/07/29 06:24:33;;;;;;;6.72;4.30;;;;;;;23.17;62.36;100198.53;1725005;82;21868;-76
2021/07/29 06:26:59;;;;;;;7.42;5.10;;;;;;;23.21;62.07;100196.94;1724936;83;20927;-76
2021/07/29 06:29:25;;;;;;;6.90;4.40;;;;;;;23.31;62.11;100205.20;1724878;82;21407;-76
2021/07/29 06:31:51;;;;;;;10.00;4.50;;;;;;;23.50;61.88;100198.05;1724944;83;21408;-76
2021/07/29 06:34:17;;;;;;;7.85;4.70;;;;;;;23.44;61.54;100192.25;1719649;83;20935;-76
2021/07/29 06:36:43;;;;;;;7.90;4.75;;;;;;;23.44;61.65;100198.52;1704695;83;21825;-76
2021/07/29 06:39:10;;;;;;;7.33;4.50;;;;;;;23.47;61.33;100202.09;1715312;83;21011;-76
2021/07/29 06:41:38;;;;;;;7.17;4.58;;;;;;;23.33;61.08;100196.75;1709148;83;21042;-76
2021/07/29 06:44:08;;;;;;;6.53;4.72;;;;;;;23.29;61.03;100199.17;1717514;83;21010;-76
2021/07/29 06:46:37;;;;;;;7.75;5.10;;;;;;;23.43;60.89;100198.80;1721683;83;20963;-76
2021/07/29 06:49:06;;;;;;;7.50;4.45;;;;;;;23.51;60.82;100196.95;1711601;83;21833;-76
2021/07/29 06:51:36;;;;;;;7.95;4.45;;;;;;;23.81;60.91;100202.11;1703453;83;21549;-76
2021/07/29 06:54:04;;;;;;;;;;;;;;;23.54;60.32;100205.41;1702883;83;21010;-76
2021/07/29 06:56:31;;;;;;;7.97;4.42;;;;;;;23.06;60.31;100215.82;1700251;83;20992;-76
2021/07/29 06:58:58;;;;;;;16.20;9.60;;;;;;;22.80;60.50;100206.55;1710650;83;21020;-76
2021/07/29 07:01:24;;;;;;;7.08;5.20;;;;;;;22.67;60.60;100204.77;1711539;83;21909;-76
2021/07/29 07:03:50;;;;;;;9.00;6.00;;;;;;;22.75;60.81;100208.41;1710952;83;21008;-76
2021/07/29 07:06:16;;;;;;;6.30;5.15;;;;;;;22.90;60.95;100200.42;1706892;83;21018;-75
2021/07/29 07:08:42;;;;;;;10.18;4.95;;;;;;;22.97;60.87;100203.77;1705887;83;21447;-75
2021/07/29 07:11:17;;;;;;;7.95;5.12;;;;;;;22.87;60.71;100207.70;1713027;82;21437;-75
2021/07/29 07:13:43;;;;;;;7.15;4.95;;;;;;;22.71;60.73;100193.67;1706170;83;21807;-76
2021/07/29 07:16:11;;;;;;;10.10;4.60;;;;;;;22.96;60.80;100195.84;1717756;83;20972;-76
2021/07/29 07:18:37;;;;;;;7.78;4.60;;;;;;;23.21;60.78;100190.67;1715926;83;21373;-76
2021/07/29 07:21:08;;;;;;;6.60;4.85;;;;;;;23.48;60.61;100190.66;1711452;83;21401;-77
2021/07/29 07:23:34;;;;;;;11.83;4.35;;;;;;;23.56;60.26;100188.83;1714565;83;21018;-76
2021/07/29 07:26:01;;;;;;;9.08;4.75;;;;;;;23.72;60.05;100186.50;1708432;83;21957;-76
2021/07/29 07:28:27;;;;;;;8.20;4.45;;;;;;;23.87;59.99;100187.97;1705416;83;20983;-76
2021/07/29 07:30:53;;;;;;;5.37;4.10;;;;;;;23.92;59.76;100179.84;1699112;83;21070;-76
2021/07/29 07:33:19;;;;;;;7.40;3.80;;;;;;;23.86;59.28;100182.23;1705818;82;21019;-75
2021/07/29 07:35:45;;;;;;;6.83;4.47;;;;;;;23.82;59.09;100179.75;1695885;84;21082;-75
2021/07/29 07:38:11;;;;;;;6.97;4.25;;;;;;;23.89;58.97;100178.98;1711794;83;21982;-75
2021/07/29 07:40:37;;;;;;;5.53;4.65;;;;;;;23.94;58.74;100179.03;1700689;83;21503;-75
2021/07/29 07:43:03;;;;;;;5.60;4.37;;;;;;;24.05;58.68;100187.55;1721177;83;21396;-75
2021/07/29 07:45:30;;;;;;;8.25;4.28;;;;;;;24.09;58.36;100179.13;1711098;83;21002;-75
2021/07/29 07:47:56;;;;;;;8.80;4.42;;;;;;;24.17;58.12;100175.13;1694997;84;21022;-75
2021/07/29 07:50:22;;;;;;;5.87;4.30;;;;;;;24.20;57.97;100169.97;1706812;83;21978;-75
2021/07/29 07:52:48;;;;;;;5.55;4.35;;;;;;;23.98;57.54;100179.33;1723485;83;20908;-74
2021/07/29 07:55:14;;;;;;;6.12;4.55;;;;;;;23.86;57.49;100180.34;1713102;83;21022;-75
2021/07/29 07:57:40;;;;;;;8.58;4.37;;;;;;;23.86;57.02;100182.23;1706079;83;21531;-74
2021/07/29 08:00:08;;;;;;;5.53;4.12;;;;;;;23.97;57.10;100174.41;1707270;83;21463;-74
2021/07/29 08:02:34;;;;;;;7.95;3.95;;;;;;;24.25;56.99;100175.96;1710245;83;22489;-74
2021/07/29 08:05:00;;;;;;;7.92;4.22;;;;;;;24.49;56.88;100173.64;1694815;84;21451;-74
2021/07/29 08:07:26;;;;;;;6.50;3.90;;;;;;;24.69;56.76;100177.80;1707402;83;21400;-70
2021/07/29 08:09:52;;;;;;;5.33;4.10;;;;;;;24.75;56.42;100173.98;1706444;83;20991;-70
2021/07/29 08:12:18;;;;;;;5.05;4.12;;;;;;;24.64;55.99;100171.77;1694776;84;21046;-70
2021/07/29 08:14:44;;;;;;;4.53;4.12;;;;;;;24.51;55.86;100181.00;1705475;83;22026;-70
2021/07/29 08:17:10;;;;;;;8.38;4.05;;;;;;;24.52;55.60;100181.28;1688741;82;21375;-70
2021/07/29 08:19:36;;;;;;;7.30;4.62;;;;;;;24.55;55.57;100172.02;1680581;84;20994;-70
2021/07/29 08:22:03;;;;;;;5.80;3.77;;;;;;;24.66;55.51;100171.52;1694751;84;21025;-70
2021/07/29 08:24:29;;;;;;;6.47;3.80;;;;;;;24.69;54.99;100167.71;1679640;84;21558;-70
2021/07/29 08:26:57;;;;;;;4.55;3.80;;;;;;;24.87;54.96;100169.16;1676397;84;21872;-70
2021/07/29 08:29:23;;;;;;;5.12;3.87;;;;;;;25.08;54.95;100164.02;1684171;82;20918;-70
2021/07/29 08:31:49;;;;;;;8.58;3.30;;;;;;;25.26;54.81;100162.09;1675282;84;20934;-70
2021/07/29 08:34:15;;;;;;;5.42;3.70;;;;;;;25.21;54.51;100160.75;1675288;84;21017;-72
2021/07/29 08:36:41;;;;;;;5.25;3.60;;;;;;;25.24;54.09;100152.01;1672707;85;21022;-72
2021/07/29 08:39:08;;;;;;;6.33;3.67;;;;;;;24.96;53.80;100163.44;1672829;84;21943;-72
2021/07/29 08:41:34;;;;;;;5.62;3.33;;;;;;;24.51;53.62;100161.91;1696459;84;21422;-71
2021/07/29 08:44:00;;;;;;;6.83;3.60;;;;;;;24.23;53.70;100166.70;1700941;84;20990;-72
2021/07/29 08:46:26;;;;;;;6.42;2.85;;;;;;;24.06;53.74;100162.49;1700983;84;21010;-72
2021/07/29 08:48:53;;;;;;;5.53;3.85;;;;;;;24.04;53.83;100160.02;1700785;84;21018;-71
2021/07/29 08:51:25;;;;;;;6.40;3.12;;;;;;;23.98;53.74;100157.53;1682136;84;21948;-71
2021/07/29 08:53:52;;;;;;;6.62;3.15;;;;;;;23.85;53.61;100171.09;1672883;85;20903;-71
2021/07/29 08:56:23;;;;;;;4.95;3.55;;;;;;;23.85;53.71;100156.10;1697006;84;20998;-71
2021/07/29 08:58:46;;;;;;;4.92;3.77;;;;;;;23.85;53.82;100165.64;1690680;84;21074;-71
2021/07/29 09:01:12;;;;;;;3.77;3.22;;;;;;;24.20;54.07;100156.88;1672871;85;21021;-71
2021/07/29 09:03:40;;;;;;;3.15;2.85;;;;;;;24.63;54.00;100152.97;1678185;84;21918;-71
2021/07/29 09:06:12;;;;;;;8.50;4.22;;;;;;;24.89;53.29;100160.14;1678601;84;21430;-71
2021/07/29 09:08:51;;;;;;;4.15;3.10;;;;;;;24.98;53.13;100154.42;1699583;84;21411;-71
2021/07/29 09:11:35;;;;;;;6.70;3.20;;;;;;;25.11;52.97;100151.19;1690951;84;21024;-72
2021/07/29 09:14:13;;;;;;;6.50;3.33;;;;;;;25.03;52.98;100154.44;1679542;84;21041;-72
2021/07/29 09:16:59;;;;;;;4.60;3.70;;;;;;;25.30;53.21;100157.73;1672826;84;21874;-71
2021/07/29 09:19:35;;;;;;;6.05;3.65;;;;;;;25.50;52.87;100153.38;1672742;85;21046;-71
2021/07/29 09:22:18;;;;;;;4.62;4.05;;;;;;;25.37;52.73;100147.91;1672521;85;20946;-72
2021/07/29 09:25:11;;;;;;;4.78;4.00;;;;;;;25.25;52.70;100160.48;1690210;84;21121;-71
2021/07/29 09:27:42;;;;;;;5.83;2.77;;;;;;;24.89;52.47;100157.95;1687094;84;21490;-71
2021/07/29 09:30:15;;;;;;;6.87;3.58;;;;;;;24.62;52.24;100158.96;1698106;84;21859;-72
2021/07/29 09:33:04;;;;;;;6.67;4.00;;;;;;;24.27;51.87;100166.99;1701143;84;21058;-71
2021/07/29 09:35:35;;;;;;;;;;;;;;;23.95;51.74;100164.88;1693122;84;21616;-71
2021/07/29 09:38:23;;;;;;;7.25;3.25;;;;;;;23.63;51.87;100167.65;1684608;84;20448;-71
2021/07/29 09:40:56;;;;;;;33.63;4.65;;;;;;;23.39;51.98;100172.07;1705961;83;21015;-71
2021/07/29 09:43:33;;;;;;;4.60;3.50;;;;;;;23.18;52.13;100171.61;1706986;83;21704;-71
2021/07/29 09:46:06;;;;;;;8.50;3.45;;;;;;;23.06;52.34;100177.73;1688235;83;21090;-71
2021/07/29 09:48:32;;;;;;;7.83;3.58;;;;;;;23.00;52.51;100177.41;1669566;84;21139;-71
2021/07/29 09:50:59;;;;;;;5.05;3.87;;;;;;;22.98;52.75;100184.98;1688865;84;21010;-72
2021/07/29 09:53:33;;;;;;;5.00;3.70;;;;;;;22.99;52.93;100187.17;1680286;84;21511;-72
2021/07/29 09:56:00;;;;;;;5.58;3.50;;;;;;;22.94;53.14;100184.42;1687131;84;22283;-72
2021/07/29 09:58:26;;;;;;;5.62;3.45;;;;;;;22.95;53.39;100180.06;1682368;84;21018;-72
2021/07/29 10:00:52;;;;;;;3.42;3.00;;;;;;;22.88;53.48;100183.52;1670431;85;21046;-72
2021/07/29 10:03:21;;;;;;;5.22;3.75;;;;;;;22.74;53.63;100171.41;1670344;85;21018;-72
2021/07/29 10:06:00;;;;;;;9.25;3.45;;;;;;;22.80;53.91;100181.25;1670527;85;21041;-71
2021/07/29 10:08:38;;;;;;;7.25;3.20;;;;;;;23.17;54.17;100192.26;1671965;84;21725;-71
2021/07/29 10:11:09;;;;;;;6.22;3.40;;;;;;;23.68;54.19;100186.77;1651374;84;21022;-71
2021/07/29 10:13:38;;;;;;;6.67;3.55;;;;;;;24.14;54.04;100183.27;1693895;84;21039;-71
2021/07/29 10:16:05;;;;;;;6.78;3.10;;;;;;;24.27;53.62;100178.72;1671500;85;21014;-72
2021/07/29 10:18:55;;;;;;;5.58;3.60;;;;;;;24.09;53.38;100176.41;1674735;84;21030;-72
2021/07/29 10:21:25;;;;;;;6.15;3.90;;;;;;;23.98;53.46;100180.15;1644925;84;21865;-71
2021/07/29 10:23:58;;;;;;;7.08;3.65;;;;;;;23.96;53.56;100177.42;1685656;84;21021;-71
2021/07/29 10:26:27;;;;;;;6.90;3.45;;;;;;;23.84;53.47;100177.61;1673657;84;21486;-72
2021/07/29 10:28:55;;;;;;;8.98;4.45;;;;;;;23.79;53.50;100168.02;1673863;84;21553;-71
2021/07/29 10:31:21;;;;;;;5.35;3.42;;;;;;;24.03;53.49;100173.35;1663516;85;20973;-72
2021/07/29 10:33:50;;;;;;;9.33;3.30;;;;;;;24.40;53.33;100173.86;1696831;84;21689;-72
2021/07/29 10:36:44;;;;;;;7.23;3.43;;;;;;;24.62;53.18;100178.05;1675208;85;21050;-71
2021/07/29 10:39:10;;;;;;;4.62;3.83;;;;;;;24.76;52.67;100168.28;1674754;85;21046;-71
2021/07/29 10:41:48;;;;;;;4.87;3.70;;;;;;;24.87;52.44;100165.06;1674782;85;20982;-71
2021/07/29 10:44:38;;;;;;;5.07;3.23;;;;;;;24.90;52.18;100163.16;1674989;85;21092;-71
2021/07/29 10:47:06;;;;;;;3.65;3.33;;;;;;;25.04;52.15;100160.18;1674796;85;22219;-71
2021/07/29 10:49:50;;;;;;;4.87;3.40;;;;;;;25.25;51.97;100152.29;1674840;85;21013;-71
2021/07/29 10:52:16;;;;;;;4.03;3.02;;;;;;;25.50;51.86;100146.55;1674837;85;21018;-71
2021/07/29 10:54:44;;;;;;;4.42;3.58;;;;;;;25.66;51.50;100146.83;1674809;85;21007;-72
2021/07/29 10:57:11;;;;;;;8.53;3.72;;;;;;;25.85;51.35;100145.17;1674828;85;21085;-71
2021/07/29 10:59:38;;;;;;;5.28;4.10;;;;;;;25.99;51.08;100138.03;1674864;85;21851;-72
2021/07/29 11:02:13;;;;;;;3.27;2.60;;;;;;;26.16;50.80;100142.63;1674883;85;21440;-72
2021/07/29 11:04:58;;;;;;;7.33;2.65;;;;;;;26.30;50.29;100135.50;1674149;85;20986;-71
2021/07/29 11:07:27;;;;;;;5.65;2.98;;;;;;;26.30;49.68;100141.52;1674789;85;21017;-71
2021/07/29 11:10:07;;;;;;;2.95;2.20;;;;;;;26.03;48.87;100125.45;1674748;85;21065;-72
2021/07/29 11:12:35;;;;;;;9.95;3.00;;;;;;;25.57;47.38;100130.73;1674464;85;21839;-71
2021/07/29 11:15:03;;;;;;;7.55;2.60;;;;;;;25.44;47.05;100135.37;1674736;85;21069;-72
2021/07/29 11:17:29;;;;;;;6.12;2.40;;;;;;;25.35;46.43;100127.72;1674398;85;20994;-72
2021/07/29 11:19:55;;;;;;;4.55;2.35;;;;;;;25.17;46.12;100130.98;1674973;85;21057;-71
2021/07/29 11:22:21;;;;;;;5.55;3.17;;;;;;;25.08;45.75;100140.81;1674914;85;21423;-72
2021/07/29 11:24:47;;;;;;;5.35;2.87;;;;;;;25.35;45.87;100127.72;1674923;85;22584;-72
2021/07/29 11:27:13;;;;;;;3.95;2.40;;;;;;;25.62;45.77;100126.08;1674744;85;20949;-71